Time;durP1;ratioP1;P1;durP2;ratioP2;P2;SDS_P1;SDS_P2;PMS_P1;PMS_P2;Temp;Humidity;BMP_temperature;BMP_pressure;BME280_temperature;BME280_humidity;BME280_pressure;Samples;Min_cycle;Max_cycle;Signal;HPM_P1;HPM_P2
2022/08/21 00:02:18;;;;;;;6.18;3.15;;;16.60;99.90;;;;;;5074241;28;20043;-66
2022/08/21 00:04:44;;;;;;;8.23;3.20;;;16.60;99.90;;;;;;5073749;28;20066;-65
2022/08/21 00:07:10;;;;;;;6.95;3.47;;;16.50;99.90;;;;;;5074690;28;20036;-65
2022/08/21 00:09:37;;;;;;;6.97;2.97;;;16.50;99.90;;;;;;5074141;28;20483;-65
2022/08/21 00:12:04;;;;;;;7.28;2.90;;;16.40;99.90;;;;;;5074159;28;20044;-65
2022/08/21 00:14:30;;;;;;;7.90;3.40;;;16.30;99.90;;;;;;5074086;28;20483;-66
2022/08/21 00:16:56;;;;;;;9.88;3.45;;;16.20;99.90;;;;;;5074141;28;20093;-65
2022/08/21 00:19:24;;;;;;;5.65;3.38;;;16.20;99.90;;;;;;5074134;28;20036;-65
2022/08/21 00:21:51;;;;;;;5.55;3.03;;;16.10;99.90;;;;;;5074133;28;20085;-65
2022/08/21 00:24:18;;;;;;;11.82;3.40;;;16.00;99.90;;;;;;5073687;28;20051;-65
2022/08/21 00:26:44;;;;;;;7.88;3.10;;;16.00;99.90;;;;;;5074126;28;20036;-65
2022/08/21 00:29:10;;;;;;;15.10;3.25;;;16.00;99.90;;;;;;5074531;28;20040;-65
2022/08/21 00:31:36;;;;;;;4.88;3.08;;;16.00;99.90;;;;;;5073908;28;20103;-66
2022/08/21 00:34:03;;;;;;;7.70;3.17;;;16.00;99.90;;;;;;5073940;28;20044;-66
2022/08/21 00:36:29;;;;;;;10.18;3.65;;;16.00;99.90;;;;;;5073892;28;20036;-65
2022/08/21 00:38:55;;;;;;;6.60;3.40;;;15.90;99.90;;;;;;5073678;28;20044;-65
2022/08/21 00:41:23;;;;;;;9.27;3.40;;;16.00;99.90;;;;;;5073840;28;20040;-65
2022/08/21 00:43:50;;;;;;;11.10;3.90;;;15.90;99.90;;;;;;5073868;28;20094;-65
2022/08/21 00:46:15;;;;;;;5.50;3.50;;;15.90;99.90;;;;;;5073768;28;20421;-65
2022/08/21 00:48:41;;;;;;;6.78;3.45;;;15.80;99.90;;;;;;5073794;28;20093;-65
2022/08/21 00:51:13;;;;;;;6.57;3.38;;;15.80;99.90;;;;;;5073245;28;20094;-65
2022/08/21 00:53:43;;;;;;;11.30;4.03;;;15.80;99.90;;;;;;5073722;28;20434;-64
2022/08/21 00:56:11;;;;;;;6.57;3.42;;;15.80;99.90;;;;;;5073732;28;20033;-65
2022/08/21 00:58:38;;;;;;;9.60;3.92;;;15.70;99.90;;;;;;5073613;28;20051;-65
2022/08/21 01:01:06;;;;;;;8.68;3.97;;;15.70;99.90;;;;;;5073698;28;20037;-65
2022/08/21 01:03:33;;;;;;;9.13;4.18;;;15.80;99.90;;;;;;5073627;28;20044;-65
2022/08/21 01:05:59;;;;;;;9.18;3.90;;;15.70;99.90;;;;;;5073602;28;20042;-66
2022/08/21 01:08:25;;;;;;;15.25;4.90;;;15.80;99.90;;;;;;5073560;28;20058;-65
2022/08/21 01:10:53;;;;;;;9.90;3.80;;;15.70;99.90;;;;;;5073604;28;20426;-66
2022/08/21 01:13:22;;;;;;;9.20;4.15;;;15.70;99.90;;;;;;5072166;28;20040;-65
2022/08/21 01:15:49;;;;;;;6.75;4.07;;;15.70;99.90;;;;;;5074499;28;20033;-65
2022/08/21 01:18:19;;;;;;;11.05;4.55;;;15.70;99.90;;;;;;5077627;28;20033;-65
2022/08/21 01:21:04;;;;;;;9.32;3.78;;;15.70;99.90;;;;;;5077424;28;20116;-66
2022/08/21 01:23:30;;;;;;;10.20;4.28;;;15.70;99.90;;;;;;5077324;28;20547;-65
2022/08/21 01:25:56;;;;;;;8.15;3.72;;;15.70;99.90;;;;;;5075989;28;20040;-65
2022/08/21 01:28:23;;;;;;;7.65;4.20;;;15.60;99.90;;;;;;5077401;28;20037;-66
2022/08/21 01:30:51;;;;;;;7.63;3.85;;;15.60;99.90;;;;;;5077396;28;20043;-65
2022/08/21 01:33:19;;;;;;;10.52;4.32;;;15.60;99.90;;;;;;5077259;28;20041;-66
2022/08/21 01:35:45;;;;;;;9.13;4.55;;;15.60;99.90;;;;;;5077235;28;20043;-66
2022/08/21 01:38:11;;;;;;;7.88;4.03;;;15.60;99.90;;;;;;5077057;28;20108;-66
2022/08/21 01:40:37;;;;;;;8.02;4.05;;;15.50;99.90;;;;;;5077510;28;20068;-66
2022/08/21 01:43:03;;;;;;;9.48;4.13;;;15.50;99.90;;;;;;5077470;28;20079;-65
2022/08/21 01:45:30;;;;;;;9.65;4.55;;;15.60;99.90;;;;;;5077076;28;20044;-66
2022/08/21 01:47:55;;;;;;;7.60;4.45;;;15.60;99.90;;;;;;5077060;28;20172;-65
2022/08/21 01:50:21;;;;;;;26.00;4.53;;;15.60;99.90;;;;;;5076494;28;20049;-65
2022/08/21 01:52:48;;;;;;;8.63;4.47;;;15.50;99.90;;;;;;5075868;28;20521;-65
2022/08/21 01:55:15;;;;;;;11.18;4.60;;;15.50;99.90;;;;;;5076587;28;20483;-64
2022/08/21 01:57:42;;;;;;;9.60;4.40;;;15.50;99.90;;;;;;5076820;28;20033;-65
2022/08/21 02:00:10;;;;;;;9.68;4.32;;;15.50;99.90;;;;;;5076765;28;20032;-65
2022/08/21 02:02:36;;;;;;;10.27;4.28;;;15.50;99.90;;;;;;5076447;28;20040;-65
2022/08/21 02:05:03;;;;;;;13.90;4.82;;;15.40;99.90;;;;;;5076435;28;20032;-65
2022/08/21 02:07:39;;;;;;;8.68;5.00;;;15.50;99.90;;;;;;5076618;28;20112;-65
2022/08/21 02:10:07;;;;;;;14.48;5.55;;;15.50;99.90;;;;;;5076509;28;20036;-65
2022/08/21 02:12:33;;;;;;;10.93;6.03;;;15.50;99.90;;;;;;5076512;28;20047;-64
2022/08/21 02:15:00;;;;;;;12.43;5.70;;;15.50;99.90;;;;;;5076518;28;20298;-64
2022/08/21 02:17:25;;;;;;;10.10;5.35;;;15.50;99.90;;;;;;5076464;28;20044;-65
2022/08/21 02:19:51;;;;;;;8.27;4.75;;;15.40;99.90;;;;;;5076371;28;20043;-65
2022/08/21 02:22:17;;;;;;;10.27;4.75;;;15.50;99.90;;;;;;5076202;28;20058;-66
2022/08/21 02:24:42;;;;;;;9.55;5.65;;;15.40;99.90;;;;;;5076408;28;20129;-66
2022/08/21 02:27:08;;;;;;;9.77;5.47;;;15.40;99.90;;;;;;5075821;28;20124;-65
2022/08/21 02:29:33;;;;;;;12.65;5.38;;;15.40;99.90;;;;;;5076082;28;20036;-65
2022/08/21 02:31:59;;;;;;;12.68;5.53;;;15.40;99.90;;;;;;5076224;28;20036;-65
2022/08/21 02:34:25;;;;;;;10.80;5.78;;;15.40;99.90;;;;;;5075982;28;20472;-66
2022/08/21 02:36:50;;;;;;;10.90;5.47;;;15.40;99.90;;;;;;5076098;28;20048;-66
2022/08/21 02:39:16;;;;;;;12.73;6.40;;;15.30;99.90;;;;;;5076147;28;20040;-66
2022/08/21 02:41:42;;;;;;;13.18;5.68;;;15.30;99.90;;;;;;5076067;28;20044;-65
2022/08/21 02:44:07;;;;;;;11.15;5.72;;;15.30;99.90;;;;;;5076007;28;20394;-65
2022/08/21 02:46:34;;;;;;;11.65;5.72;;;15.30;99.90;;;;;;5075763;28;20079;-64
2022/08/21 02:48:59;;;;;;;9.95;5.35;;;15.30;99.90;;;;;;5075624;28;20547;-64
2022/08/21 02:51:25;;;;;;;12.65;5.72;;;15.30;99.90;;;;;;5075040;28;20056;-66
2022/08/21 02:53:51;;;;;;;11.57;5.47;;;15.20;99.90;;;;;;5075781;28;20045;-65
2022/08/21 02:56:20;;;;;;;9.55;5.28;;;15.30;99.90;;;;;;5075935;28;20045;-65
2022/08/21 02:58:48;;;;;;;;;;;15.20;99.90;;;;;;5076132;28;20116;-65
2022/08/21 03:01:15;;;;;;;11.30;6.25;;;15.20;99.90;;;;;;5075622;28;19916;-65
2022/08/21 03:03:43;;;;;;;17.42;6.78;;;15.10;99.90;;;;;;5075579;28;20127;-65
2022/08/21 03:06:11;;;;;;;13.60;6.03;;;15.10;99.90;;;;;;5075513;28;20086;-64
2022/08/21 03:08:37;;;;;;;11.23;6.22;;;15.10;99.90;;;;;;5057578;28;20056;-65
2022/08/21 03:11:03;;;;;;;12.85;6.90;;;15.20;99.90;;;;;;5075466;28;20045;-64
2022/08/21 03:13:29;;;;;;;10.85;5.80;;;15.00;99.90;;;;;;5075365;28;20044;-65
2022/08/21 03:15:55;;;;;;;10.90;6.13;;;15.00;99.90;;;;;;5075313;28;20429;-64
2022/08/21 03:18:21;;;;;;;9.43;6.85;;;15.10;99.90;;;;;;5074016;28;20037;-65
2022/08/21 03:20:47;;;;;;;12.30;6.68;;;15.00;99.90;;;;;;5075239;28;20044;-65
2022/08/21 03:23:15;;;;;;;16.10;7.45;;;14.90;99.90;;;;;;5075497;28;20094;-64
2022/08/21 03:25:41;;;;;;;9.52;5.72;;;15.00;99.90;;;;;;5075112;28;20052;-65
2022/08/21 03:28:19;;;;;;;10.63;7.13;;;15.00;99.90;;;;;;5073765;28;20398;-65
2022/08/21 03:30:46;;;;;;;8.02;6.47;;;15.00;99.90;;;;;;5075097;28;20059;-65
2022/08/21 03:33:12;;;;;;;11.95;6.90;;;14.90;99.90;;;;;;5074635;28;20041;-65
2022/08/21 03:35:38;;;;;;;9.95;6.60;;;14.90;99.90;;;;;;5074989;28;20101;-65
2022/08/21 03:38:04;;;;;;;10.50;6.68;;;15.00;99.90;;;;;;5074953;28;20041;-65
2022/08/21 03:40:30;;;;;;;10.20;7.07;;;14.80;99.90;;;;;;5073784;28;20040;-65
2022/08/21 03:42:55;;;;;;;9.10;6.72;;;14.90;99.90;;;;;;5074857;28;20040;-65
2022/08/21 03:45:21;;;;;;;14.35;7.40;;;14.90;99.90;;;;;;5074694;28;20044;-65
2022/08/21 03:47:58;;;;;;;11.18;8.18;;;14.90;99.90;;;;;;5074602;28;20048;-65
2022/08/21 03:50:30;;;;;;;10.73;6.80;;;14.90;99.90;;;;;;5074497;28;20059;-65
2022/08/21 03:52:57;;;;;;;13.55;6.93;;;14.90;99.90;;;;;;5074569;28;20492;-65
2022/08/21 03:55:24;;;;;;;11.77;7.50;;;14.80;99.90;;;;;;5074548;28;20471;-65
2022/08/21 03:57:49;;;;;;;13.45;6.53;;;14.80;99.90;;;;;;5074361;28;20479;-65
2022/08/21 04:00:16;;;;;;;9.27;6.68;;;14.80;99.90;;;;;;5074490;28;20039;-65
2022/08/21 04:02:43;;;;;;;14.02;7.35;;;14.80;99.90;;;;;;5074797;28;20036;-65
2022/08/21 04:05:10;;;;;;;11.00;7.68;;;14.80;99.90;;;;;;5073085;28;20051;-66
2022/08/21 04:07:36;;;;;;;11.10;7.20;;;14.80;99.90;;;;;;5074329;28;20040;-65
2022/08/21 04:10:03;;;;;;;9.55;7.05;;;14.80;99.90;;;;;;5074497;28;20070;-65
2022/08/21 04:12:30;;;;;;;9.88;7.88;;;14.80;99.90;;;;;;5074213;28;20085;-65
2022/08/21 04:14:56;;;;;;;12.88;6.82;;;14.80;99.90;;;;;;5073996;28;20120;-64
2022/08/21 04:17:22;;;;;;;13.15;7.00;;;14.70;99.90;;;;;;5074057;28;20115;-65
2022/08/21 04:19:47;;;;;;;12.07;6.50;;;14.80;99.90;;;;;;5074078;28;20068;-65
2022/08/21 04:22:13;;;;;;;12.50;6.93;;;14.80;99.90;;;;;;5074156;28;20036;-65
2022/08/21 04:24:38;;;;;;;14.27;7.30;;;14.70;99.90;;;;;;5074100;28;20123;-64
2022/08/21 04:27:04;;;;;;;9.88;6.53;;;14.70;99.90;;;;;;5073992;28;20040;-64
2022/08/21 04:29:30;;;;;;;15.02;7.97;;;14.70;99.90;;;;;;5073635;28;20471;-65
2022/08/21 04:31:55;;;;;;;8.93;6.80;;;14.70;99.90;;;;;;5074034;28;20044;-64
2022/08/21 04:34:21;;;;;;;14.05;6.55;;;14.70;99.90;;;;;;5073905;28;20047;-64
2022/08/21 04:36:47;;;;;;;10.70;7.18;;;14.70;99.90;;;;;;5074008;28;20043;-64
2022/08/21 04:39:12;;;;;;;18.58;7.63;;;14.70;99.90;;;;;;5073877;28;20471;-64
2022/08/21 04:41:38;;;;;;;10.82;7.18;;;14.70;99.90;;;;;;5073516;28;20041;-64
2022/08/21 04:44:04;;;;;;;10.18;6.65;;;14.70;99.90;;;;;;5073956;28;20040;-65
2022/08/21 04:46:30;;;;;;;8.75;6.95;;;14.70;99.90;;;;;;5073607;28;20039;-65
2022/08/21 04:48:56;;;;;;;10.75;7.65;;;14.70;99.90;;;;;;5073486;28;20044;-63
2022/08/21 04:51:27;;;;;;;11.57;7.00;;;14.70;99.90;;;;;;5073538;28;20087;-64
2022/08/21 04:54:01;;;;;;;11.15;6.75;;;14.70;99.90;;;;;;5072609;28;20056;-65
2022/08/21 04:56:32;;;;;;;10.98;6.55;;;14.70;99.90;;;;;;5073537;28;20637;-65
2022/08/21 04:59:03;;;;;;;11.93;6.80;;;14.80;99.90;;;;;;5073580;28;20047;-64
2022/08/21 05:01:32;;;;;;;11.07;7.10;;;14.80;99.90;;;;;;5074080;28;20040;-64
2022/08/21 05:04:00;;;;;;;12.73;7.25;;;14.80;99.90;;;;;;5073799;28;20390;-65
2022/08/21 05:06:29;;;;;;;9.93;6.40;;;14.90;99.90;;;;;;5073561;28;20112;-64
2022/08/21 05:08:56;;;;;;;9.48;6.80;;;14.80;99.90;;;;;;5073346;28;20544;-64
2022/08/21 05:11:21;;;;;;;12.60;6.75;;;14.80;99.90;;;;;;5073546;28;20047;-65
2022/08/21 05:13:49;;;;;;;11.85;7.10;;;14.80;99.90;;;;;;5073289;28;20044;-64
2022/08/21 05:16:15;;;;;;;11.48;6.47;;;14.80;99.90;;;;;;5073543;28;20047;-65
2022/08/21 05:18:42;;;;;;;11.90;6.35;;;15.00;99.90;;;;;;5073669;28;20041;-64
2022/08/21 05:21:07;;;;;;;12.38;6.82;;;15.00;99.90;;;;;;5073446;28;20032;-64
2022/08/21 05:23:33;;;;;;;8.77;6.25;;;15.00;99.90;;;;;;5073802;28;20118;-65
2022/08/21 05:25:59;;;;;;;10.50;6.10;;;15.00;99.90;;;;;;5073521;28;20075;-65
2022/08/21 05:28:25;;;;;;;13.52;6.90;;;15.10;99.90;;;;;;5073485;28;20495;-65
2022/08/21 05:30:51;;;;;;;11.20;6.68;;;15.20;99.90;;;;;;5073401;28;20431;-66
2022/08/21 05:33:17;;;;;;;10.05;6.20;;;15.20;99.90;;;;;;5073204;28;20083;-65
2022/08/21 05:35:43;;;;;;;17.98;6.13;;;15.40;99.90;;;;;;5073164;28;20033;-65
2022/08/21 05:38:08;;;;;;;10.25;5.85;;;15.40;99.90;;;;;;5073395;28;20032;-65
2022/08/21 05:40:34;;;;;;;11.52;6.03;;;15.40;99.90;;;;;;5073279;28;20483;-65
2022/08/21 05:43:00;;;;;;;10.23;6.43;;;15.50;99.90;;;;;;5073290;28;20082;-65
2022/08/21 05:45:30;;;;;;;13.02;6.18;;;15.60;99.90;;;;;;5073312;28;20075;-65
2022/08/21 05:47:55;;;;;;;7.82;6.00;;;15.60;99.90;;;;;;5073144;28;20072;-65
2022/08/21 05:50:21;;;;;;;9.30;6.13;;;15.70;99.90;;;;;;5072902;28;20083;-65
2022/08/21 05:52:48;;;;;;;15.68;6.50;;;15.80;99.90;;;;;;5072866;28;20049;-64
2022/08/21 05:55:13;;;;;;;7.68;5.43;;;15.80;99.90;;;;;;5073193;28;20029;-65
2022/08/21 05:57:41;;;;;;;10.10;5.72;;;15.90;99.90;;;;;;5073196;28;20467;-65
2022/08/21 06:00:12;;;;;;;12.70;5.82;;;16.00;99.90;;;;;;5072996;28;20041;-65
2022/08/21 06:02:38;;;;;;;12.93;6.13;;;16.00;99.90;;;;;;5073605;28;20045;-65
2022/08/21 06:05:04;;;;;;;11.80;5.85;;;16.20;99.90;;;;;;5076711;28;20045;-65
2022/08/21 06:07:30;;;;;;;11.48;5.47;;;16.20;99.90;;;;;;5076677;28;20045;-64
2022/08/21 06:09:56;;;;;;;9.55;5.38;;;16.40;99.90;;;;;;5076582;28;20042;-64
2022/08/21 06:12:21;;;;;;;9.63;5.80;;;16.50;99.90;;;;;;5076611;28;20037;-65
2022/08/21 06:14:47;;;;;;;10.80;5.20;;;16.60;99.90;;;;;;5075302;28;20045;-65
2022/08/21 06:17:15;;;;;;;10.18;5.32;;;16.70;99.90;;;;;;5076482;28;20036;-65
2022/08/21 06:19:41;;;;;;;10.40;5.13;;;16.80;99.90;;;;;;5076485;28;20068;-65
2022/08/21 06:22:06;;;;;;;11.85;5.70;;;16.90;99.90;;;;;;5076378;28;20045;-64
2022/08/21 06:24:33;;;;;;;9.48;5.32;;;17.10;99.90;;;;;;5076228;28;20076;-64
2022/08/21 06:27:03;;;;;;;13.77;5.53;;;17.20;99.90;;;;;;5076323;28;20055;-65
2022/08/21 06:29:29;;;;;;;12.63;4.80;;;17.40;99.90;;;;;;5076281;28;20036;-64
2022/08/21 06:31:54;;;;;;;8.70;4.53;;;17.60;99.90;;;;;;5075868;28;20040;-64
2022/08/21 06:34:20;;;;;;;9.13;4.30;;;17.70;99.90;;;;;;5076133;28;20391;-64
2022/08/21 06:36:46;;;;;;;8.85;4.18;;;17.90;99.90;;;;;;5076110;28;20033;-64
2022/08/21 06:39:13;;;;;;;8.85;4.10;;;18.10;99.90;;;;;;5076370;28;20032;-64
2022/08/21 06:41:38;;;;;;;11.25;4.85;;;18.30;99.90;;;;;;5075957;28;20083;-64
2022/08/21 06:44:04;;;;;;;10.07;4.30;;;18.50;99.90;;;;;;5074765;28;20071;-64
2022/08/21 06:46:30;;;;;;;8.10;4.10;;;18.80;99.90;;;;;;5075894;28;20036;-65
2022/08/21 06:48:57;;;;;;;11.07;4.68;;;19.00;99.90;;;;;;5075845;28;20490;-63
2022/08/21 06:51:23;;;;;;;7.28;3.03;;;19.20;99.90;;;;;;5076206;28;20063;-64
2022/08/21 06:53:49;;;;;;;13.75;3.25;;;19.40;99.90;;;;;;5075832;28;20032;-64
2022/08/21 06:56:15;;;;;;;7.75;3.65;;;19.70;99.90;;;;;;5075831;28;20352;-65
2022/08/21 06:58:40;;;;;;;7.93;2.80;;;20.00;99.90;;;;;;5075625;28;20037;-65
2022/08/21 07:01:06;;;;;;;14.07;3.22;;;20.20;99.90;;;;;;5075443;28;20123;-64
2022/08/21 07:03:38;;;;;;;7.85;2.95;;;20.50;99.90;;;;;;5075659;28;20092;-63
2022/08/21 07:06:06;;;;;;;5.88;2.45;;;20.70;99.90;;;;;;5075664;28;20146;-64
2022/08/21 07:08:33;;;;;;;8.68;3.28;;;20.90;99.90;;;;;;5075521;28;20123;-64
2022/08/21 07:11:02;;;;;;;10.23;2.90;;;21.10;99.90;;;;;;5075389;28;20086;-65
2022/08/21 07:13:27;;;;;;;8.55;2.80;;;21.30;99.90;;;;;;5075201;28;20040;-65
2022/08/21 07:15:53;;;;;;;7.82;2.72;;;21.50;99.90;;;;;;5075369;28;20037;-65
2022/08/21 07:18:19;;;;;;;8.98;2.85;;;21.80;99.90;;;;;;5075718;28;20036;-64
2022/08/21 07:20:45;;;;;;;8.15;2.38;;;22.10;99.90;;;;;;5075321;28;20072;-65
2022/08/21 07:23:29;;;;;;;8.55;2.42;;;22.40;99.90;;;;;;5075260;28;20116;-65
2022/08/21 07:25:54;;;;;;;8.15;2.40;;;22.50;99.90;;;;;;5074827;28;20036;-65
2022/08/21 07:28:20;;;;;;;8.48;2.55;;;22.70;99.90;;;;;;5075059;28;20055;-65
2022/08/21 07:30:52;;;;;;;5.20;2.30;;;23.00;99.90;;;;;;5075103;28;20083;-65
2022/08/21 07:33:17;;;;;;;9.82;2.45;;;23.20;99.90;;;;;;5074971;28;20036;-64
2022/08/21 07:35:43;;;;;;;9.63;2.03;;;23.20;99.90;;;;;;5074850;28;20086;-64
2022/08/21 07:38:09;;;;;;;6.28;2.55;;;23.40;99.90;;;;;;5074643;28;20075;-64
2022/08/21 07:40:34;;;;;;;12.02;3.70;;;23.60;99.90;;;;;;5074833;28;20037;-64
2022/08/21 07:43:00;;;;;;;6.53;2.00;;;23.80;99.90;;;;;;5074842;28;20480;-64
2022/08/21 07:45:26;;;;;;;7.07;2.20;;;23.90;99.90;;;;;;5074724;28;20434;-64
2022/08/21 07:47:52;;;;;;;7.88;2.28;;;24.30;99.90;;;;;;5074758;28;20048;-65
2022/08/21 07:50:18;;;;;;;11.07;2.30;;;24.40;99.90;;;;;;5074424;28;20045;-63
2022/08/21 07:52:44;;;;;;;5.57;1.70;;;24.40;99.90;;;;;;5074387;28;20036;-64
2022/08/21 07:55:14;;;;;;;7.63;2.13;;;24.30;99.90;;;;;;5074536;28;20078;-64
2022/08/21 07:57:40;;;;;;;9.18;2.83;;;24.40;99.90;;;;;;5074594;28;20046;-64
2022/08/21 08:00:12;;;;;;;8.73;1.88;;;24.70;99.90;;;;;;5074533;28;20029;-63
2022/08/21 08:02:38;;;;;;;8.20;1.88;;;24.70;99.90;;;;;;5074415;28;20119;-64
2022/08/21 08:05:06;;;;;;;5.68;1.80;;;24.90;99.90;;;;;;5074261;28;20033;-64
2022/08/21 08:07:31;;;;;;;16.20;2.33;;;24.80;99.90;;;;;;5074284;28;20041;-64
2022/08/21 08:09:58;;;;;;;15.25;2.17;;;25.00;99.90;;;;;;5074474;28;20047;-64
2022/08/21 08:12:29;;;;;;;8.38;1.90;;;25.10;99.90;;;;;;5074340;28;20051;-63
2022/08/21 08:15:00;;;;;;;11.48;2.50;;;25.20;99.90;;;;;;5074154;28;20043;-62
2022/08/21 08:17:26;;;;;;;9.52;2.05;;;26.50;99.90;;;;;;5072928;28;20398;-62
2022/08/21 08:19:53;;;;;;;5.82;1.83;;;27.10;99.90;;;;;;5074091;28;20044;-62
2022/08/21 08:22:23;;;;;;;8.60;1.60;;;28.00;99.90;;;;;;5074107;28;20044;-62
2022/08/21 08:24:50;;;;;;;7.32;2.00;;;29.00;99.90;;;;;;5074455;28;20048;-62
2022/08/21 08:27:17;;;;;;;7.10;1.95;;;29.30;99.30;;;;;;5074046;28;20396;-63
2022/08/21 08:29:43;;;;;;;9.85;3.03;;;29.10;99.10;;;;;;5074013;28;20048;-62
2022/08/21 08:32:09;;;;;;;7.90;2.50;;;29.70;99.10;;;;;;5074003;28;20043;-63
2022/08/21 08:34:36;;;;;;;8.32;2.75;;;29.70;98.40;;;;;;5073982;28;20032;-62
2022/08/21 08:37:03;;;;;;;9.82;2.03;;;29.80;98.80;;;;;;5073954;28;20036;-62
2022/08/21 08:39:29;;;;;;;10.50;3.15;;;30.00;98.40;;;;;;5073968;28;20036;-62
2022/08/21 08:42:09;;;;;;;8.32;2.33;;;29.90;97.90;;;;;;5073853;28;20111;-62
2022/08/21 08:44:37;;;;;;;7.28;2.35;;;29.70;97.50;;;;;;5072907;28;20105;-62
2022/08/21 08:47:04;;;;;;;8.75;2.50;;;29.60;98.10;;;;;;5073862;28;20041;-63
2022/08/21 08:49:36;;;;;;;8.63;2.37;;;28.70;98.00;;;;;;5073628;28;20056;-63
2022/08/21 08:52:22;;;;;;;6.15;2.28;;;28.20;98.30;;;;;;5073777;28;20055;-61
2022/08/21 08:55:02;;;;;;;11.25;2.63;;;28.60;98.70;;;;;;5073732;28;20052;-62
2022/08/21 08:57:27;;;;;;;9.50;2.80;;;29.10;98.50;;;;;;5073789;28;20036;-61
2022/08/21 08:59:57;;;;;;;13.30;2.70;;;29.90;98.70;;;;;;5073544;28;20036;-62
2022/08/21 09:02:23;;;;;;;9.65;2.22;;;29.30;98.60;;;;;;5073741;28;20075;-61
2022/08/21 09:04:51;;;;;;;12.73;3.08;;;29.10;98.50;;;;;;5073686;28;20067;-61
2022/08/21 09:08:01;;;;;;;8.43;2.35;;;29.00;99.30;;;;;;5073498;28;20044;-62
2022/08/21 09:10:56;;;;;;;12.57;2.95;;;28.60;98.90;;;;;;5071767;28;20040;-62
2022/08/21 09:13:59;;;;;;;7.82;2.65;;;29.40;98.60;;;;;;5031641;28;20049;-61
2022/08/21 09:16:45;;;;;;;7.15;2.58;;;28.90;98.70;;;;;;5031380;28;20423;-63
2022/08/21 09:19:38;;;;;;;6.85;2.30;;;28.90;98.70;;;;;;5031170;28;20034;-62
2022/08/21 09:22:44;;;;;;;10.35;3.10;;;28.60;98.30;;;;;;5031363;28;20048;-61
2022/08/21 09:25:19;;;;;;;10.98;2.70;;;27.80;98.90;;;;;;4992236;28;20089;-62
2022/08/21 09:27:45;;;;;;;9.32;2.03;;;27.60;99.20;;;;;;4991826;28;20046;-61
2022/08/21 09:30:12;;;;;;;9.10;2.50;;;28.40;99.60;;;;;;4991946;28;20058;-61
2022/08/21 09:32:39;;;;;;;8.60;2.20;;;28.90;99.60;;;;;;4991992;28;20122;-62
2022/08/21 09:35:05;;;;;;;10.48;2.70;;;29.40;99.00;;;;;;4992401;28;20078;-62
2022/08/21 09:37:34;;;;;;;9.43;2.20;;;28.80;98.90;;;;;;4992371;28;20105;-61
2022/08/21 09:40:01;;;;;;;10.52;2.53;;;28.40;99.00;;;;;;4995568;28;20057;-62
2022/08/21 09:42:31;;;;;;;8.07;2.10;;;29.30;98.90;;;;;;4995815;28;20050;-61
2022/08/21 09:45:27;;;;;;;9.85;2.72;;;28.30;98.50;;;;;;4995568;28;20042;-62
2022/08/21 09:47:52;;;;;;;5.90;2.22;;;27.60;99.10;;;;;;4937553;29;20061;-62
2022/08/21 09:50:23;;;;;;;11.63;3.50;;;27.00;99.90;;;;;;4964959;28;20541;-63
2022/08/21 09:52:58;;;;;;;6.13;2.30;;;27.40;99.80;;;;;;4975942;28;20055;-63
2022/08/21 09:58:37;;;;;;;13.10;3.25;;;28.90;98.80;;;;;;4975884;28;20039;-63
2022/08/21 10:01:04;;;;;;;8.88;2.15;;;28.20;98.40;;;;;;5000541;28;20050;-63
2022/08/21 10:03:30;;;;;;;8.15;2.50;;;27.50;98.90;;;;;;5014808;28;20046;-62
2022/08/21 10:05:59;;;;;;;7.70;2.00;;;26.80;99.50;;;;;;5014855;28;20488;-63
2022/08/21 10:08:27;;;;;;;15.52;2.60;;;27.40;99.40;;;;;;5014765;28;20479;-63
2022/08/21 10:11:12;;;;;;;9.70;2.15;;;28.60;99.10;;;;;;5014521;28;20085;-60
2022/08/21 10:14:16;;;;;;;9.10;2.47;;;28.80;98.50;;;;;;5014642;28;20054;-61
2022/08/21 10:16:45;;;;;;;7.13;2.22;;;29.00;98.80;;;;;;5014304;28;20049;-61
2022/08/21 10:19:34;;;;;;;10.55;2.80;;;29.80;97.90;;;;;;5014437;28;20489;-62
2022/08/21 10:22:22;;;;;;;7.72;1.90;;;29.70;97.20;;;;;;5014578;28;20073;-62
2022/08/21 10:25:03;;;;;;;6.78;1.98;;;30.20;96.40;;;;;;5059624;28;20056;-61
2022/08/21 10:27:50;;;;;;;10.13;2.58;;;31.00;96.80;;;;;;5076342;28;20041;-62
2022/08/21 10:30:40;;;;;;;6.68;2.42;;;30.80;96.40;;;;;;5076247;28;20194;-62
2022/08/21 10:33:17;;;;;;;9.50;2.47;;;29.90;96.80;;;;;;5076202;28;20044;-62
2022/08/21 10:35:58;;;;;;;10.10;2.28;;;29.20;97.80;;;;;;5074936;28;20040;-62
2022/08/21 10:39:04;;;;;;;7.28;1.75;;;28.60;97.80;;;;;;5076160;28;20068;-62
2022/08/21 10:41:57;;;;;;;8.40;2.08;;;28.00;98.20;;;;;;5033887;28;20046;-65
2022/08/21 10:44:33;;;;;;;7.03;1.80;;;27.20;98.40;;;;;;5033844;28;20393;-66
2022/08/21 10:47:05;;;;;;;7.13;1.98;;;26.60;99.50;;;;;;5034327;28;20388;-66
2022/08/21 10:50:04;;;;;;;8.85;2.08;;;26.00;99.50;;;;;;5049208;28;20584;-66
2022/08/21 10:53:00;;;;;;;10.23;2.22;;;25.60;99.90;;;;;;5033379;28;20436;-65
2022/08/21 10:56:14;;;;;;;7.90;2.42;;;25.20;99.90;;;;;;5033719;28;20492;-65
2022/08/21 10:58:50;;;;;;;7.35;2.05;;;24.90;99.90;;;;;;4994026;28;20046;-65
2022/08/21 11:01:24;;;;;;;10.38;2.15;;;24.70;99.90;;;;;;4994177;28;20096;-65
2022/08/21 11:04:10;;;;;;;5.95;1.88;;;24.50;99.90;;;;;;4994517;28;20054;-65
2022/08/21 11:06:39;;;;;;;12.80;2.72;;;24.50;99.90;;;;;;4994117;28;20087;-65
2022/08/21 11:09:14;;;;;;;8.27;2.50;;;24.30;99.90;;;;;;4993976;28;20065;-65
2022/08/21 11:11:47;;;;;;;10.73;2.65;;;24.20;99.90;;;;;;4993717;28;20390;-65
2022/08/21 11:14:33;;;;;;;8.80;2.90;;;24.40;99.90;;;;;;4994372;28;20077;-66
2022/08/21 11:17:10;;;;;;;8.68;2.30;;;24.40;99.90;;;;;;5014076;28;20053;-65
2022/08/21 11:19:47;;;;;;;8.38;2.45;;;24.50;99.90;;;;;;5033191;28;20037;-67
2022/08/21 11:22:35;;;;;;;9.35;2.75;;;24.90;99.90;;;;;;5032216;28;20132;-61
2022/08/21 11:25:13;;;;;;;7.18;2.58;;;25.60;99.90;;;;;;5033178;28;20128;-61
2022/08/21 11:27:48;;;;;;;7.67;2.10;;;26.80;99.90;;;;;;5033138;28;20049;-61
2022/08/21 11:30:14;;;;;;;8.90;2.13;;;27.40;99.90;;;;;;5032898;28;20106;-61
2022/08/21 11:33:05;;;;;;;10.70;1.90;;;29.10;99.90;;;;;;5032957;28;20057;-61
2022/08/21 11:35:30;;;;;;;10.40;1.77;;;30.10;99.60;;;;;;5054814;28;20083;-61
2022/08/21 11:37:56;;;;;;;7.32;2.10;;;31.70;98.40;;;;;;5074871;28;20068;-61
2022/08/21 11:41:01;;;;;;;6.55;2.05;;;32.50;96.60;;;;;;5074891;28;20029;-61
2022/08/21 11:43:36;;;;;;;6.43;2.15;;;33.30;95.80;;;;;;5074662;28;20491;-61
2022/08/21 11:46:32;;;;;;;7.15;1.92;;;34.00;94.50;;;;;;5074777;28;20394;-61
2022/08/21 11:49:31;;;;;;;8.60;2.70;;;32.90;94.60;;;;;;5074622;28;20067;-62
2022/08/21 11:52:10;;;;;;;4.53;1.48;;;31.80;95.30;;;;;;5074587;28;20088;-62
2022/08/21 11:54:46;;;;;;;9.55;2.47;;;31.10;95.90;;;;;;5074607;28;20181;-61
2022/08/21 11:57:39;;;;;;;9.32;2.30;;;30.30;96.10;;;;;;5074551;28;20118;-61
2022/08/21 12:00:37;;;;;;;7.65;2.17;;;29.70;96.10;;;;;;5072775;28;20036;-61
2022/08/21 12:03:13;;;;;;;12.32;1.73;;;29.40;96.90;;;;;;5074508;28;20037;-62
2022/08/21 12:05:51;;;;;;;8.70;2.03;;;30.20;96.80;;;;;;5074460;28;20029;-61
2022/08/21 12:08:38;;;;;;;5.68;1.75;;;30.50;96.50;;;;;;5072931;28;20051;-61
2022/08/21 12:11:18;;;;;;;8.52;2.03;;;30.90;95.90;;;;;;5074027;28;20107;-61
2022/08/21 12:14:00;;;;;;;5.15;2.40;;;30.50;95.60;;;;;;5074173;28;20506;-61
2022/08/21 12:16:41;;;;;;;5.15;1.83;;;30.90;95.60;;;;;;5072890;28;20453;-60
2022/08/21 12:19:13;;;;;;;8.85;1.98;;;31.40;95.40;;;;;;5074221;28;20036;-61
2022/08/21 12:21:57;;;;;;;7.13;2.20;;;31.70;94.10;;;;;;5073983;28;20068;-60
2022/08/21 12:24:43;;;;;;;15.52;1.83;;;31.70;94.00;;;;;;5074055;28;20041;-61
2022/08/21 12:27:29;;;;;;;6.07;1.88;;;32.20;94.20;;;;;;5074119;28;20115;-61
2022/08/21 12:30:01;;;;;;;5.57;1.85;;;32.50;93.40;;;;;;5072554;28;20521;-56
2022/08/21 12:32:30;;;;;;;5.70;1.80;;;33.30;93.90;;;;;;5073703;28;20047;-57
2022/08/21 12:35:21;;;;;;;4.28;1.70;;;32.90;93.10;;;;;;5073291;28;20540;-57
2022/08/21 12:38:06;;;;;;;7.13;1.92;;;32.20;94.10;;;;;;5072070;28;20036;-56
2022/08/21 12:40:39;;;;;;;5.50;1.88;;;31.90;93.80;;;;;;5072355;28;20048;-56
2022/08/21 12:43:15;;;;;;;4.93;1.80;;;30.80;94.50;;;;;;5071794;28;20026;-56
2022/08/21 12:45:45;;;;;;;4.72;1.70;;;30.40;94.70;;;;;;5071189;28;20395;-57
2022/08/21 12:48:14;;;;;;;6.38;2.00;;;30.20;94.80;;;;;;5073082;28;20028;-57
2022/08/21 12:51:00;;;;;;;9.57;1.85;;;30.30;95.10;;;;;;5067067;28;20053;-57
2022/08/21 12:53:40;;;;;;;3.72;1.27;;;30.90;94.20;;;;;;5071830;28;20371;-56
2022/08/21 12:56:10;;;;;;;6.32;1.70;;;31.30;93.20;;;;;;5071909;28;20427;-56
2022/08/21 12:58:39;;;;;;;5.07;1.65;;;31.40;93.70;;;;;;5073282;28;20386;-57
2022/08/21 13:01:24;;;;;;;5.97;1.92;;;31.30;93.40;;;;;;5073255;28;20032;-58
2022/08/21 13:03:53;;;;;;;4.43;1.33;;;30.30;93.60;;;;;;5072349;28;20138;-58
2022/08/21 13:06:20;;;;;;;6.07;2.08;;;29.70;94.00;;;;;;5094645;28;20483;-57